sensor_id;sensor_type;location;lat;lon;timestamp;temperature;humidity
73112;HTU21D;61301;51.956;5.876;2022-09-27T00:01:10;14.11;68.83
73112;HTU21D;61301;51.956;5.876;2022-09-27T00:03:36;14.08;68.78
73112;HTU21D;61301;51.956;5.876;2022-09-27T00:06:15;14.03;68.94
73112;HTU21D;61301;51.956;5.876;2022-09-27T00:08:43;13.84;69.63
73112;HTU21D;61301;51.956;5.876;2022-09-27T00:13:55;13.75;69.78
73112;HTU21D;61301;51.956;5.876;2022-09-27T00:16:23;13.81;69.47
73112;HTU21D;61301;51.956;5.876;2022-09-27T00:18:50;13.91;69.16
73112;HTU21D;61301;51.956;5.876;2022-09-27T00:21:16;13.94;69.00
73112;HTU21D;61301;51.956;5.876;2022-09-27T00:23:42;13.92;68.99
73112;HTU21D;61301;51.956;5.876;2022-09-27T00:26:11;13.92;68.97
73112;HTU21D;61301;51.956;5.876;2022-09-27T00:28:37;13.89;69.17
73112;HTU21D;61301;51.956;5.876;2022-09-27T00:31:04;13.88;69.03
73112;HTU21D;61301;51.956;5.876;2022-09-27T00:33:35;13.86;69.13
73112;HTU21D;61301;51.956;5.876;2022-09-27T00:36:05;13.81;69.27
73112;HTU21D;61301;51.956;5.876;2022-09-27T00:38:31;13.76;69.33
73112;HTU21D;61301;51.956;5.876;2022-09-27T00:40:57;13.77;69.20
73112;HTU21D;61301;51.956;5.876;2022-09-27T00:43:23;13.63;69.73
73112;HTU21D;61301;51.956;5.876;2022-09-27T00:45:53;13.62;69.65
73112;HTU21D;61301;51.956;5.876;2022-09-27T00:48:23;13.68;69.40
73112;HTU21D;61301;51.956;5.876;2022-09-27T00:50:57;13.75;69.15
73112;HTU21D;61301;51.956;5.876;2022-09-27T00:53:32;13.85;68.81
73112;HTU21D;61301;51.956;5.876;2022-09-27T00:56:03;13.78;68.82
73112;HTU21D;61301;51.956;5.876;2022-09-27T00:58:33;13.67;69.03
73112;HTU21D;61301;51.956;5.876;2022-09-27T01:01:04;13.67;69.10
73112;HTU21D;61301;51.956;5.876;2022-09-27T01:03:53;13.74;68.84
73112;HTU21D;61301;51.956;5.876;2022-09-27T01:06:21;13.74;68.85
73112;HTU21D;61301;51.956;5.876;2022-09-27T01:08:47;13.67;69.05
73112;HTU21D;61301;51.956;5.876;2022-09-27T01:19:58;13.50;69.51
73112;HTU21D;61301;51.956;5.876;2022-09-27T01:26:09;13.40;69.53
73112;HTU21D;61301;51.956;5.876;2022-09-27T01:34:25;13.18;70.29
73112;HTU21D;61301;51.956;5.876;2022-09-27T01:37:01;13.23;70.16
73112;HTU21D;61301;51.956;5.876;2022-09-27T01:45:09;13.48;69.27
73112;HTU21D;61301;51.956;5.876;2022-09-27T01:47:56;13.45;69.33
73112;HTU21D;61301;51.956;5.876;2022-09-27T01:51:01;13.49;69.18
73112;HTU21D;61301;51.956;5.876;2022-09-27T01:53:52;13.54;69.04
73112;HTU21D;61301;51.956;5.876;2022-09-27T02:01:33;13.46;69.16
73112;HTU21D;61301;51.956;5.876;2022-09-27T02:04:01;13.37;69.16
73112;HTU21D;61301;51.956;5.876;2022-09-27T02:07:27;13.15;69.79
73112;HTU21D;61301;51.956;5.876;2022-09-27T02:10:18;13.21;69.58
73112;HTU21D;61301;51.956;5.876;2022-09-27T02:12:59;13.26;69.40
73112;HTU21D;61301;51.956;5.876;2022-09-27T02:15:33;13.30;69.24
73112;HTU21D;61301;51.956;5.876;2022-09-27T02:18:35;13.39;68.91
73112;HTU21D;61301;51.956;5.876;2022-09-27T02:21:06;13.48;68.74
73112;HTU21D;61301;51.956;5.876;2022-09-27T02:23:42;13.50;68.45
73112;HTU21D;61301;51.956;5.876;2022-09-27T02:26:19;13.49;68.55
73112;HTU21D;61301;51.956;5.876;2022-09-27T02:31:26;13.49;68.38
73112;HTU21D;61301;51.956;5.876;2022-09-27T02:34:17;13.50;68.30
73112;HTU21D;61301;51.956;5.876;2022-09-27T02:36:44;13.49;68.14
73112;HTU21D;61301;51.956;5.876;2022-09-27T02:39:10;13.36;68.38
73112;HTU21D;61301;51.956;5.876;2022-09-27T02:41:38;13.43;68.19
73112;HTU21D;61301;51.956;5.876;2022-09-27T02:44:09;13.45;67.99
73112;HTU21D;61301;51.956;5.876;2022-09-27T02:52:49;13.41;67.72
73112;HTU21D;61301;51.956;5.876;2022-09-27T02:55:33;13.40;67.75
73112;HTU21D;61301;51.956;5.876;2022-09-27T03:01:53;13.31;67.88
73112;HTU21D;61301;51.956;5.876;2022-09-27T03:04:41;13.25;67.93
73112;HTU21D;61301;51.956;5.876;2022-09-27T03:07:08;13.23;67.91
73112;HTU21D;61301;51.956;5.876;2022-09-27T03:09:44;13.19;68.01
73112;HTU21D;61301;51.956;5.876;2022-09-27T03:12:11;13.19;67.82
73112;HTU21D;61301;51.956;5.876;2022-09-27T03:14:37;13.18;67.94
73112;HTU21D;61301;51.956;5.876;2022-09-27T03:17:19;13.16;67.98
73112;HTU21D;61301;51.956;5.876;2022-09-27T03:20:17;13.10;68.04
73112;HTU21D;61301;51.956;5.876;2022-09-27T03:22:54;13.05;68.49
73112;HTU21D;61301;51.956;5.876;2022-09-27T03:25:21;12.99;68.72
73112;HTU21D;61301;51.956;5.876;2022-09-27T03:27:47;13.02;68.62
73112;HTU21D;61301;51.956;5.876;2022-09-27T03:30:13;13.03;68.52
73112;HTU21D;61301;51.956;5.876;2022-09-27T03:32:43;13.04;68.55
73112;HTU21D;61301;51.956;5.876;2022-09-27T03:35:45;12.99;68.55
73112;HTU21D;61301;51.956;5.876;2022-09-27T03:38:12;13.04;68.42
73112;HTU21D;61301;51.956;5.876;2022-09-27T03:40:39;13.07;68.38
73112;HTU21D;61301;51.956;5.876;2022-09-27T03:43:07;13.07;68.34
73112;HTU21D;61301;51.956;5.876;2022-09-27T03:45:33;13.06;68.36
73112;HTU21D;61301;51.956;5.876;2022-09-27T03:48:03;13.07;68.31
73112;HTU21D;61301;51.956;5.876;2022-09-27T03:50:29;13.07;68.24
73112;HTU21D;61301;51.956;5.876;2022-09-27T03:52:56;13.06;68.13
73112;HTU21D;61301;51.956;5.876;2022-09-27T03:55:23;13.07;68.10
73112;HTU21D;61301;51.956;5.876;2022-09-27T03:57:49;13.05;68.09
73112;HTU21D;61301;51.956;5.876;2022-09-27T04:00:17;13.02;68.05
73112;HTU21D;61301;51.956;5.876;2022-09-27T04:02:44;13.01;68.05
73112;HTU21D;61301;51.956;5.876;2022-09-27T04:05:26;12.94;68.22
73112;HTU21D;61301;51.956;5.876;2022-09-27T04:07:58;12.93;68.12
73112;HTU21D;61301;51.956;5.876;2022-09-27T04:10:24;12.87;68.28
73112;HTU21D;61301;51.956;5.876;2022-09-27T04:12:51;12.84;68.48
73112;HTU21D;61301;51.956;5.876;2022-09-27T04:15:19;12.86;68.71
73112;HTU21D;61301;51.956;5.876;2022-09-27T04:17:49;12.87;68.67
73112;HTU21D;61301;51.956;5.876;2022-09-27T04:20:30;12.84;68.88
73112;HTU21D;61301;51.956;5.876;2022-09-27T04:22:57;12.84;68.87
73112;HTU21D;61301;51.956;5.876;2022-09-27T04:25:23;12.85;69.07
73112;HTU21D;61301;51.956;5.876;2022-09-27T04:27:50;12.86;69.07
73112;HTU21D;61301;51.956;5.876;2022-09-27T04:30:21;12.92;68.94
73112;HTU21D;61301;51.956;5.876;2022-09-27T04:33:05;12.97;68.85
73112;HTU21D;61301;51.956;5.876;2022-09-27T04:35:50;12.97;68.79
73112;HTU21D;61301;51.956;5.876;2022-09-27T04:38:38;13.01;68.82
73112;HTU21D;61301;51.956;5.876;2022-09-27T04:41:06;13.02;68.89
73112;HTU21D;61301;51.956;5.876;2022-09-27T04:43:35;13.04;68.80
73112;HTU21D;61301;51.956;5.876;2022-09-27T04:46:02;13.09;68.55
73112;HTU21D;61301;51.956;5.876;2022-09-27T04:48:28;13.01;68.79
73112;HTU21D;61301;51.956;5.876;2022-09-27T04:50:58;13.06;68.69
73112;HTU21D;61301;51.956;5.876;2022-09-27T04:53:25;13.07;68.56
73112;HTU21D;61301;51.956;5.876;2022-09-27T04:55:52;13.06;68.40
73112;HTU21D;61301;51.956;5.876;2022-09-27T04:58:20;13.05;68.38
73112;HTU21D;61301;51.956;5.876;2022-09-27T05:00:47;13.00;68.44
73112;HTU21D;61301;51.956;5.876;2022-09-27T05:03:36;13.00;68.42
73112;HTU21D;61301;51.956;5.876;2022-09-27T05:06:09;12.99;68.42
73112;HTU21D;61301;51.956;5.876;2022-09-27T05:08:35;12.95;68.38
73112;HTU21D;61301;51.956;5.876;2022-09-27T05:11:33;12.95;68.35
73112;HTU21D;61301;51.956;5.876;2022-09-27T05:14:20;12.90;68.36
73112;HTU21D;61301;51.956;5.876;2022-09-27T05:17:05;12.91;68.29
73112;HTU21D;61301;51.956;5.876;2022-09-27T05:19:35;12.89;67.84
73112;HTU21D;61301;51.956;5.876;2022-09-27T05:22:14;12.77;67.99
73112;HTU21D;61301;51.956;5.876;2022-09-27T05:24:40;12.84;67.68
73112;HTU21D;61301;51.956;5.876;2022-09-27T05:27:09;12.82;67.19
73112;HTU21D;61301;51.956;5.876;2022-09-27T05:29:37;12.84;67.52
73112;HTU21D;61301;51.956;5.876;2022-09-27T05:32:08;12.86;67.53
73112;HTU21D;61301;51.956;5.876;2022-09-27T05:34:35;12.84;67.46
73112;HTU21D;61301;51.956;5.876;2022-09-27T05:37:01;12.86;67.07
73112;HTU21D;61301;51.956;5.876;2022-09-27T05:39:31;12.85;67.32
73112;HTU21D;61301;51.956;5.876;2022-09-27T05:41:57;12.84;67.35
73112;HTU21D;61301;51.956;5.876;2022-09-27T05:44:23;12.85;67.33
73112;HTU21D;61301;51.956;5.876;2022-09-27T05:47:00;12.87;67.29
73112;HTU21D;61301;51.956;5.876;2022-09-27T05:49:31;12.78;67.53
73112;HTU21D;61301;51.956;5.876;2022-09-27T05:51:57;12.78;67.63
73112;HTU21D;61301;51.956;5.876;2022-09-27T05:54:26;12.76;67.85
73112;HTU21D;61301;51.956;5.876;2022-09-27T05:56:55;12.76;67.96
73112;HTU21D;61301;51.956;5.876;2022-09-27T05:59:42;12.75;68.09
73112;HTU21D;61301;51.956;5.876;2022-09-27T06:02:19;12.76;67.97
73112;HTU21D;61301;51.956;5.876;2022-09-27T06:04:51;12.79;68.05
73112;HTU21D;61301;51.956;5.876;2022-09-27T06:07:37;12.78;68.13
73112;HTU21D;61301;51.956;5.876;2022-09-27T06:10:08;12.77;68.18
73112;HTU21D;61301;51.956;5.876;2022-09-27T06:12:35;12.79;68.20
73112;HTU21D;61301;51.956;5.876;2022-09-27T06:15:04;12.76;68.37
73112;HTU21D;61301;51.956;5.876;2022-09-27T06:17:37;12.71;68.66
73112;HTU21D;61301;51.956;5.876;2022-09-27T06:20:11;12.79;68.56
73112;HTU21D;61301;51.956;5.876;2022-09-27T06:22:38;12.88;68.33
73112;HTU21D;61301;51.956;5.876;2022-09-27T06:25:06;12.92;68.30
73112;HTU21D;61301;51.956;5.876;2022-09-27T06:27:39;12.97;68.15
73112;HTU21D;61301;51.956;5.876;2022-09-27T06:30:09;13.05;67.99
73112;HTU21D;61301;51.956;5.876;2022-09-27T06:32:46;13.04;67.94
73112;HTU21D;61301;51.956;5.876;2022-09-27T06:35:23;13.10;67.82
73112;HTU21D;61301;51.956;5.876;2022-09-27T06:37:51;13.07;67.72
73112;HTU21D;61301;51.956;5.876;2022-09-27T06:40:18;12.97;68.00
73112;HTU21D;61301;51.956;5.876;2022-09-27T06:42:52;13.03;67.88
73112;HTU21D;61301;51.956;5.876;2022-09-27T06:45:32;13.14;67.74
73112;HTU21D;61301;51.956;5.876;2022-09-27T06:48:18;13.17;67.98
73112;HTU21D;61301;51.956;5.876;2022-09-27T06:50:52;13.23;68.12
73112;HTU21D;61301;51.956;5.876;2022-09-27T06:53:20;13.30;67.94
73112;HTU21D;61301;51.956;5.876;2022-09-27T06:55:50;13.29;67.83
73112;HTU21D;61301;51.956;5.876;2022-09-27T06:58:17;13.48;67.50
73112;HTU21D;61301;51.956;5.876;2022-09-27T07:01:20;13.66;67.25
73112;HTU21D;61301;51.956;5.876;2022-09-27T07:04:18;13.73;67.47
73112;HTU21D;61301;51.956;5.876;2022-09-27T07:07:19;13.93;67.30
73112;HTU21D;61301;51.956;5.876;2022-09-27T07:09:47;14.10;67.03
73112;HTU21D;61301;51.956;5.876;2022-09-27T07:12:13;14.17;66.85
73112;HTU21D;61301;51.956;5.876;2022-09-27T07:14:41;14.19;66.53
73112;HTU21D;61301;51.956;5.876;2022-09-27T07:17:11;14.00;66.83
73112;HTU21D;61301;51.956;5.876;2022-09-27T07:19:42;14.03;66.75
73112;HTU21D;61301;51.956;5.876;2022-09-27T07:22:09;14.01;66.95
73112;HTU21D;61301;51.956;5.876;2022-09-27T07:24:35;13.91;67.17
73112;HTU21D;61301;51.956;5.876;2022-09-27T07:27:03;13.91;67.17
73112;HTU21D;61301;51.956;5.876;2022-09-27T07:29:30;13.86;67.27
73112;HTU21D;61301;51.956;5.876;2022-09-27T07:31:56;13.91;67.34
73112;HTU21D;61301;51.956;5.876;2022-09-27T07:34:22;13.92;67.56
73112;HTU21D;61301;51.956;5.876;2022-09-27T07:36:48;14.00;67.15
73112;HTU21D;61301;51.956;5.876;2022-09-27T07:39:14;13.84;67.46
73112;HTU21D;61301;51.956;5.876;2022-09-27T07:41:42;13.78;68.08
73112;HTU21D;61301;51.956;5.876;2022-09-27T07:44:09;13.89;67.83
73112;HTU21D;61301;51.956;5.876;2022-09-27T07:46:46;13.90;67.68
73112;HTU21D;61301;51.956;5.876;2022-09-27T07:49:18;14.05;67.49
73112;HTU21D;61301;51.956;5.876;2022-09-27T07:52:00;14.17;67.62
73112;HTU21D;61301;51.956;5.876;2022-09-27T07:54:35;14.21;66.86
73112;HTU21D;61301;51.956;5.876;2022-09-27T07:57:04;14.21;67.06
73112;HTU21D;61301;51.956;5.876;2022-09-27T07:59:32;14.14;67.42
73112;HTU21D;61301;51.956;5.876;2022-09-27T08:01:58;14.18;67.38
73112;HTU21D;61301;51.956;5.876;2022-09-27T08:04:24;14.19;67.21
73112;HTU21D;61301;51.956;5.876;2022-09-27T08:06:50;14.23;67.14
73112;HTU21D;61301;51.956;5.876;2022-09-27T08:09:16;14.35;66.62
73112;HTU21D;61301;51.956;5.876;2022-09-27T08:11:43;14.41;66.67
73112;HTU21D;61301;51.956;5.876;2022-09-27T08:14:12;14.40;66.77
73112;HTU21D;61301;51.956;5.876;2022-09-27T08:16:43;14.47;66.72
73112;HTU21D;61301;51.956;5.876;2022-09-27T08:19:29;14.55;66.87
73112;HTU21D;61301;51.956;5.876;2022-09-27T08:21:55;14.66;66.80
73112;HTU21D;61301;51.956;5.876;2022-09-27T08:24:23;14.72;66.46
73112;HTU21D;61301;51.956;5.876;2022-09-27T08:27:05;14.66;66.99
73112;HTU21D;61301;51.956;5.876;2022-09-27T08:29:46;14.79;66.65
73112;HTU21D;61301;51.956;5.876;2022-09-27T08:32:13;14.83;66.54
73112;HTU21D;61301;51.956;5.876;2022-09-27T08:34:41;14.82;66.77
73112;HTU21D;61301;51.956;5.876;2022-09-27T08:37:08;14.62;66.15
73112;HTU21D;61301;51.956;5.876;2022-09-27T08:39:34;14.55;66.60
73112;HTU21D;61301;51.956;5.876;2022-09-27T08:45:00;14.35;67.36
73112;HTU21D;61301;51.956;5.876;2022-09-27T08:47:40;14.50;67.19
73112;HTU21D;61301;51.956;5.876;2022-09-27T08:50:24;14.62;67.07
73112;HTU21D;61301;51.956;5.876;2022-09-27T08:53:01;14.66;67.00
73112;HTU21D;61301;51.956;5.876;2022-09-27T08:55:35;14.83;66.34
73112;HTU21D;61301;51.956;5.876;2022-09-27T08:58:15;14.94;66.09
73112;HTU21D;61301;51.956;5.876;2022-09-27T09:00:44;14.88;66.46
73112;HTU21D;61301;51.956;5.876;2022-09-27T09:03:16;15.00;66.15
73112;HTU21D;61301;51.956;5.876;2022-09-27T09:05:55;14.97;66.36
73112;HTU21D;61301;51.956;5.876;2022-09-27T09:15:17;14.79;66.24
73112;HTU21D;61301;51.956;5.876;2022-09-27T09:18:11;14.87;66.58
73112;HTU21D;61301;51.956;5.876;2022-09-27T09:21:15;14.96;66.02
73112;HTU21D;61301;51.956;5.876;2022-09-27T09:24:21;15.07;65.86
73112;HTU21D;61301;51.956;5.876;2022-09-27T09:30:11;15.09;65.78
73112;HTU21D;61301;51.956;5.876;2022-09-27T09:33:10;15.17;65.58
73112;HTU21D;61301;51.956;5.876;2022-09-27T09:35:46;14.96;65.74
73112;HTU21D;61301;51.956;5.876;2022-09-27T09:38:22;14.95;66.20
73112;HTU21D;61301;51.956;5.876;2022-09-27T09:41:11;15.07;66.24
73112;HTU21D;61301;51.956;5.876;2022-09-27T09:44:20;15.11;65.95
73112;HTU21D;61301;51.956;5.876;2022-09-27T09:46:46;15.04;66.14
73112;HTU21D;61301;51.956;5.876;2022-09-27T09:49:36;15.04;65.77
73112;HTU21D;61301;51.956;5.876;2022-09-27T09:52:14;14.99;65.67
73112;HTU21D;61301;51.956;5.876;2022-09-27T09:57:25;14.78;65.38
73112;HTU21D;61301;51.956;5.876;2022-09-27T09:59:58;14.79;65.25
73112;HTU21D;61301;51.956;5.876;2022-09-27T10:04:57;14.73;65.33
73112;HTU21D;61301;51.956;5.876;2022-09-27T10:07:25;14.81;65.30
73112;HTU21D;61301;51.956;5.876;2022-09-27T10:09:55;14.80;65.79
73112;HTU21D;61301;51.956;5.876;2022-09-27T10:12:45;14.84;65.81
73112;HTU21D;61301;51.956;5.876;2022-09-27T10:15:16;14.93;64.89
73112;HTU21D;61301;51.956;5.876;2022-09-27T10:17:46;14.99;64.88
73112;HTU21D;61301;51.956;5.876;2022-09-27T10:20:30;14.97;64.29
73112;HTU21D;61301;51.956;5.876;2022-09-27T10:23:24;14.88;64.14
73112;HTU21D;61301;51.956;5.876;2022-09-27T10:26:26;14.81;64.00
73112;HTU21D;61301;51.956;5.876;2022-09-27T10:28:52;14.71;64.30
73112;HTU21D;61301;51.956;5.876;2022-09-27T10:31:34;14.72;64.40
73112;HTU21D;61301;51.956;5.876;2022-09-27T10:34:32;14.68;64.68
73112;HTU21D;61301;51.956;5.876;2022-09-27T10:37:17;14.79;64.41
73112;HTU21D;61301;51.956;5.876;2022-09-27T10:40:28;14.88;64.06
73112;HTU21D;61301;51.956;5.876;2022-09-27T10:42:57;14.65;63.08
73112;HTU21D;61301;51.956;5.876;2022-09-27T10:45:33;14.52;63.78
73112;HTU21D;61301;51.956;5.876;2022-09-27T10:48:20;14.36;63.74
73112;HTU21D;61301;51.956;5.876;2022-09-27T10:50:57;14.34;64.49
73112;HTU21D;61301;51.956;5.876;2022-09-27T10:53:34;14.45;64.50
73112;HTU21D;61301;51.956;5.876;2022-09-27T10:56:20;14.60;64.01
73112;HTU21D;61301;51.956;5.876;2022-09-27T10:58:47;14.66;64.58
73112;HTU21D;61301;51.956;5.876;2022-09-27T11:01:14;14.78;63.79
73112;HTU21D;61301;51.956;5.876;2022-09-27T11:04:01;14.94;64.04
73112;HTU21D;61301;51.956;5.876;2022-09-27T11:06:30;15.07;63.57
73112;HTU21D;61301;51.956;5.876;2022-09-27T11:09:30;15.16;63.46
73112;HTU21D;61301;51.956;5.876;2022-09-27T11:12:08;15.24;62.93
73112;HTU21D;61301;51.956;5.876;2022-09-27T11:14:37;15.31;63.27
73112;HTU21D;61301;51.956;5.876;2022-09-27T11:17:23;15.32;60.86
73112;HTU21D;61301;51.956;5.876;2022-09-27T11:20:26;15.07;59.80
73112;HTU21D;61301;51.956;5.876;2022-09-27T11:28:50;14.81;62.36
73112;HTU21D;61301;51.956;5.876;2022-09-27T11:34:34;15.10;61.66
73112;HTU21D;61301;51.956;5.876;2022-09-27T11:37:37;15.31;62.79
73112;HTU21D;61301;51.956;5.876;2022-09-27T11:51:57;15.89;61.51
73112;HTU21D;61301;51.956;5.876;2022-09-27T11:59:52;15.48;60.38
73112;HTU21D;61301;51.956;5.876;2022-09-27T12:08:03;15.42;61.70
73112;HTU21D;61301;51.956;5.876;2022-09-27T12:10:35;15.43;62.12
73112;HTU21D;61301;51.956;5.876;2022-09-27T12:13:03;15.36;61.98
73112;HTU21D;61301;51.956;5.876;2022-09-27T12:15:33;15.27;62.47
73112;HTU21D;61301;51.956;5.876;2022-09-27T12:18:30;15.41;62.24
73112;HTU21D;61301;51.956;5.876;2022-09-27T12:21:01;15.61;62.18
73112;HTU21D;61301;51.956;5.876;2022-09-27T12:23:44;15.66;60.88
73112;HTU21D;61301;51.956;5.876;2022-09-27T12:26:37;15.58;61.38
73112;HTU21D;61301;51.956;5.876;2022-09-27T12:29:25;15.56;60.05
73112;HTU21D;61301;51.956;5.876;2022-09-27T12:32:01;15.54;60.70
73112;HTU21D;61301;51.956;5.876;2022-09-27T12:34:46;15.55;60.90
73112;HTU21D;61301;51.956;5.876;2022-09-27T12:42:43;15.26;61.44
73112;HTU21D;61301;51.956;5.876;2022-09-27T12:45:59;15.21;61.85
73112;HTU21D;61301;51.956;5.876;2022-09-27T12:51:21;15.27;61.91
73112;HTU21D;61301;51.956;5.876;2022-09-27T13:13:04;14.82;61.46
73112;HTU21D;61301;51.956;5.876;2022-09-27T13:15:36;14.69;62.17
73112;HTU21D;61301;51.956;5.876;2022-09-27T13:18:28;14.82;61.85
73112;HTU21D;61301;51.956;5.876;2022-09-27T13:20:54;14.78;61.65
73112;HTU21D;61301;51.956;5.876;2022-09-27T13:26:19;14.94;61.86
73112;HTU21D;61301;51.956;5.876;2022-09-27T13:34:51;14.79;61.41
73112;HTU21D;61301;51.956;5.876;2022-09-27T13:45:58;14.86;62.24
73112;HTU21D;61301;51.956;5.876;2022-09-27T13:51:32;15.02;61.74
73112;HTU21D;61301;51.956;5.876;2022-09-27T13:54:02;15.03;61.23
73112;HTU21D;61301;51.956;5.876;2022-09-27T13:59:09;14.77;60.86
73112;HTU21D;61301;51.956;5.876;2022-09-27T14:01:51;14.68;61.50
73112;HTU21D;61301;51.956;5.876;2022-09-27T14:04:30;14.75;61.20
73112;HTU21D;61301;51.956;5.876;2022-09-27T14:07:01;14.70;61.43
73112;HTU21D;61301;51.956;5.876;2022-09-27T14:09:35;14.72;61.78
73112;HTU21D;61301;51.956;5.876;2022-09-27T14:12:38;14.97;61.74
73112;HTU21D;61301;51.956;5.876;2022-09-27T14:15:27;15.17;61.48
73112;HTU21D;61301;51.956;5.876;2022-09-27T14:17:55;15.23;61.41
73112;HTU21D;61301;51.956;5.876;2022-09-27T14:22:59;15.38;61.41
73112;HTU21D;61301;51.956;5.876;2022-09-27T14:25:31;15.49;61.17
73112;HTU21D;61301;51.956;5.876;2022-09-27T14:27:58;15.57;61.09
73112;HTU21D;61301;51.956;5.876;2022-09-27T14:30:30;15.68;60.27
73112;HTU21D;61301;51.956;5.876;2022-09-27T14:33:30;15.66;60.96
73112;HTU21D;61301;51.956;5.876;2022-09-27T14:36:05;15.59;60.19
73112;HTU21D;61301;51.956;5.876;2022-09-27T14:38:54;15.62;60.60
73112;HTU21D;61301;51.956;5.876;2022-09-27T14:41:35;15.62;59.77
73112;HTU21D;61301;51.956;5.876;2022-09-27T14:44:01;15.54;60.62
73112;HTU21D;61301;51.956;5.876;2022-09-27T14:46:31;15.49;61.31
73112;HTU21D;61301;51.956;5.876;2022-09-27T14:48:57;15.56;61.17
73112;HTU21D;61301;51.956;5.876;2022-09-27T14:51:31;15.69;61.13
73112;HTU21D;61301;51.956;5.876;2022-09-27T14:53:59;15.61;60.36
73112;HTU21D;61301;51.956;5.876;2022-09-27T14:56:33;15.68;60.60
73112;HTU21D;61301;51.956;5.876;2022-09-27T14:59:06;15.65;59.36
73112;HTU21D;61301;51.956;5.876;2022-09-27T15:01:35;15.46;60.35
73112;HTU21D;61301;51.956;5.876;2022-09-27T15:04:06;15.57;60.72
73112;HTU21D;61301;51.956;5.876;2022-09-27T15:06:34;15.62;60.47
73112;HTU21D;61301;51.956;5.876;2022-09-27T15:09:02;15.61;60.32
73112;HTU21D;61301;51.956;5.876;2022-09-27T15:11:29;15.56;60.35
73112;HTU21D;61301;51.956;5.876;2022-09-27T15:14:00;15.54;60.11
73112;HTU21D;61301;51.956;5.876;2022-09-27T15:16:29;15.53;60.62
73112;HTU21D;61301;51.956;5.876;2022-09-27T15:19:13;15.62;60.69
73112;HTU21D;61301;51.956;5.876;2022-09-27T15:21:41;15.65;60.72
73112;HTU21D;61301;51.956;5.876;2022-09-27T15:24:42;15.62;60.18
73112;HTU21D;61301;51.956;5.876;2022-09-27T15:27:17;15.60;60.25
73112;HTU21D;61301;51.956;5.876;2022-09-27T15:29:50;15.57;59.70
73112;HTU21D;61301;51.956;5.876;2022-09-27T15:32:18;15.52;59.73
73112;HTU21D;61301;51.956;5.876;2022-09-27T15:34:45;15.44;60.14
73112;HTU21D;61301;51.956;5.876;2022-09-27T15:39:52;15.33;60.56
73112;HTU21D;61301;51.956;5.876;2022-09-27T15:42:19;15.33;60.49
73112;HTU21D;61301;51.956;5.876;2022-09-27T15:44:53;15.36;60.63
73112;HTU21D;61301;51.956;5.876;2022-09-27T15:49:57;15.48;60.72
73112;HTU21D;61301;51.956;5.876;2022-09-27T15:52:44;15.53;60.86
73112;HTU21D;61301;51.956;5.876;2022-09-27T15:55:13;15.45;61.25
73112;HTU21D;61301;51.956;5.876;2022-09-27T15:57:40;15.37;60.96
73112;HTU21D;61301;51.956;5.876;2022-09-27T16:00:11;15.38;60.76
73112;HTU21D;61301;51.956;5.876;2022-09-27T16:02:38;15.28;60.77
73112;HTU21D;61301;51.956;5.876;2022-09-27T16:05:04;15.23;61.03
73112;HTU21D;61301;51.956;5.876;2022-09-27T16:07:30;15.24;61.37
73112;HTU21D;61301;51.956;5.876;2022-09-27T16:09:56;15.29;61.07
73112;HTU21D;61301;51.956;5.876;2022-09-27T16:12:22;15.27;61.39
73112;HTU21D;61301;51.956;5.876;2022-09-27T16:14:48;15.28;61.50
73112;HTU21D;61301;51.956;5.876;2022-09-27T16:17:14;15.19;61.50
73112;HTU21D;61301;51.956;5.876;2022-09-27T16:19:40;15.13;61.86
73112;HTU21D;61301;51.956;5.876;2022-09-27T16:22:06;15.13;62.02
73112;HTU21D;61301;51.956;5.876;2022-09-27T16:24:33;15.15;61.87
73112;HTU21D;61301;51.956;5.876;2022-09-27T16:27:00;15.13;62.11
73112;HTU21D;61301;51.956;5.876;2022-09-27T16:29:26;15.13;62.12
73112;HTU21D;61301;51.956;5.876;2022-09-27T16:31:52;15.10;62.24
73112;HTU21D;61301;51.956;5.876;2022-09-27T16:34:19;15.04;62.21
73112;HTU21D;61301;51.956;5.876;2022-09-27T16:36:45;15.00;62.65
73112;HTU21D;61301;51.956;5.876;2022-09-27T16:39:12;14.96;62.95
73112;HTU21D;61301;51.956;5.876;2022-09-27T16:41:38;14.89;63.11
73112;HTU21D;61301;51.956;5.876;2022-09-27T16:44:06;14.87;62.98
73112;HTU21D;61301;51.956;5.876;2022-09-27T16:46:33;14.93;62.87
73112;HTU21D;61301;51.956;5.876;2022-09-27T16:49:00;14.92;62.76
73112;HTU21D;61301;51.956;5.876;2022-09-27T16:51:26;14.89;62.73
73112;HTU21D;61301;51.956;5.876;2022-09-27T16:54:10;14.68;61.96
73112;HTU21D;61301;51.956;5.876;2022-09-27T16:56:40;14.67;61.93
73112;HTU21D;61301;51.956;5.876;2022-09-27T16:59:06;14.60;61.74
73112;HTU21D;61301;51.956;5.876;2022-09-27T17:01:33;14.62;61.46
73112;HTU21D;61301;51.956;5.876;2022-09-27T17:03:59;14.39;62.38
73112;HTU21D;61301;51.956;5.876;2022-09-27T17:06:26;14.40;62.37
73112;HTU21D;61301;51.956;5.876;2022-09-27T17:08:53;14.38;62.87
73112;HTU21D;61301;51.956;5.876;2022-09-27T17:11:19;14.40;63.06
73112;HTU21D;61301;51.956;5.876;2022-09-27T17:13:46;14.27;63.60
73112;HTU21D;61301;51.956;5.876;2022-09-27T17:16:14;14.23;63.81
73112;HTU21D;61301;51.956;5.876;2022-09-27T17:18:40;14.17;64.27
73112;HTU21D;61301;51.956;5.876;2022-09-27T17:21:07;14.08;64.40
73112;HTU21D;61301;51.956;5.876;2022-09-27T17:23:34;14.06;64.41
73112;HTU21D;61301;51.956;5.876;2022-09-27T17:26:02;14.05;64.75
73112;HTU21D;61301;51.956;5.876;2022-09-27T17:28:29;13.93;65.25
73112;HTU21D;61301;51.956;5.876;2022-09-27T17:31:05;13.95;65.13
73112;HTU21D;61301;51.956;5.876;2022-09-27T17:33:33;14.04;65.06
73112;HTU21D;61301;51.956;5.876;2022-09-27T17:36:07;14.09;64.88
73112;HTU21D;61301;51.956;5.876;2022-09-27T17:38:34;14.17;64.75
73112;HTU21D;61301;51.956;5.876;2022-09-27T17:41:01;14.23;64.56
73112;HTU21D;61301;51.956;5.876;2022-09-27T17:43:27;14.23;64.61
73112;HTU21D;61301;51.956;5.876;2022-09-27T17:46:01;14.10;64.75
73112;HTU21D;61301;51.956;5.876;2022-09-27T17:48:27;14.01;65.05
73112;HTU21D;61301;51.956;5.876;2022-09-27T17:51:11;13.92;65.27
73112;HTU21D;61301;51.956;5.876;2022-09-27T17:53:39;13.78;65.99
73112;HTU21D;61301;51.956;5.876;2022-09-27T17:56:05;13.79;65.88
73112;HTU21D;61301;51.956;5.876;2022-09-27T17:58:32;13.88;65.44
73112;HTU21D;61301;51.956;5.876;2022-09-27T18:01:05;13.94;65.21
73112;HTU21D;61301;51.956;5.876;2022-09-27T18:03:35;13.94;65.13
73112;HTU21D;61301;51.956;5.876;2022-09-27T18:06:05;14.01;64.89
73112;HTU21D;61301;51.956;5.876;2022-09-27T18:08:32;14.10;64.63
73112;HTU21D;61301;51.956;5.876;2022-09-27T18:11:03;14.17;64.57
73112;HTU21D;61301;51.956;5.876;2022-09-27T18:13:29;14.15;64.43
73112;HTU21D;61301;51.956;5.876;2022-09-27T18:15:56;14.03;64.55
73112;HTU21D;61301;51.956;5.876;2022-09-27T18:18:24;14.08;64.44
73112;HTU21D;61301;51.956;5.876;2022-09-27T18:20:53;14.00;64.62
73112;HTU21D;61301;51.956;5.876;2022-09-27T18:23:19;13.99;64.63
73112;HTU21D;61301;51.956;5.876;2022-09-27T18:25:52;13.94;64.66
73112;HTU21D;61301;51.956;5.876;2022-09-27T18:28:26;13.96;64.65